Time;durP1;ratioP1;P1;durP2;ratioP2;P2;SDS_P1;SDS_P2;PMS_P1;PMS_P2;Temp;Humidity;BMP_temperature;BMP_pressure;BME280_temperature;BME280_humidity;BME280_pressure;Samples;Min_cycle;Max_cycle;Signal;HPM_P1;HPM_P2
2024/03/13 00:00:24;;;;;;;0.20;0.20;;;;;;;10.35;71.20;100705.13;4917809;29;20034;-86
2024/03/13 00:02:50;;;;;;;0.20;0.20;;;;;;;10.43;71.57;100723.72;4917763;29;20501;-86
2024/03/13 00:05:16;;;;;;;0.20;0.20;;;;;;;10.42;70.91;100719.47;4917991;29;20106;-87
2024/03/13 00:07:41;;;;;;;0.20;0.20;;;;;;;10.38;70.83;100709.31;4902142;29;20050;-86
2024/03/13 00:10:08;;;;;;;0.20;0.20;;;;;;;10.29;71.34;100705.41;4934599;29;20047;-87
2024/03/13 00:12:34;;;;;;;0.20;0.20;;;;;;;10.42;71.39;100729.81;4917931;29;20032;-86
2024/03/13 00:15:00;;;;;;;0.20;0.20;;;;;;;10.37;72.23;100726.59;4917748;29;20036;-86
2024/03/13 00:17:26;;;;;;;0.20;0.20;;;;;;;10.35;72.03;100728.41;4933118;29;20409;-87
2024/03/13 00:19:54;;;;;;;0.20;0.20;;;;;;;10.29;72.48;100732.09;4933372;29;20036;-86
2024/03/13 00:22:20;;;;;;;0.20;0.20;;;;;;;10.31;72.21;100730.28;4917758;29;20417;-86
2024/03/13 00:24:49;;;;;;;0.20;0.20;;;;;;;10.28;72.80;100716.66;4917725;29;20115;-87
2024/03/13 00:27:15;;;;;;;0.20;0.20;;;;;;;10.28;71.91;100709.75;4917504;29;20130;-86
2024/03/13 00:29:41;;;;;;;0.20;0.20;;;;;;;10.29;72.18;100708.00;4917476;29;20036;-86
2024/03/13 00:32:07;;;;;;;0.20;0.20;;;;;;;10.35;72.41;100710.31;4917887;29;20027;-87
2024/03/13 00:34:33;;;;;;;0.20;0.20;;;;;;;10.38;72.28;100714.50;4901696;29;20090;-87
2024/03/13 00:36:59;;;;;;;0.20;0.20;;;;;;;10.25;71.66;100711.66;4901128;29;20134;-87
2024/03/13 00:39:25;;;;;;;0.20;0.20;;;;;;;10.30;72.14;100725.19;4901674;29;21045;-85
2024/03/13 00:41:50;;;;;;;0.20;0.20;;;;;;;10.15;71.84;100715.53;4917301;29;20498;-86
2024/03/13 00:44:16;;;;;;;0.20;0.20;;;;;;;10.19;71.94;100717.06;4916962;29;20047;-86
2024/03/13 00:46:41;;;;;;;0.20;0.20;;;;;;;10.21;72.26;100715.22;4916950;29;20157;-87
2024/03/13 00:49:08;;;;;;;0.20;0.20;;;;;;;10.15;71.90;100708.63;4932838;29;20054;-86
2024/03/13 00:51:35;;;;;;;0.20;0.20;;;;;;;10.32;71.74;100718.19;4917274;29;20074;-86
2024/03/13 00:54:04;;;;;;;0.20;0.20;;;;;;;10.37;71.72;100718.00;4932865;29;20036;-86
2024/03/13 00:56:31;;;;;;;0.20;0.20;;;;;;;10.27;71.23;100712.41;4933921;29;20032;-87
2024/03/13 00:58:57;;;;;;;0.20;0.20;;;;;;;10.31;70.65;100722.53;4916755;29;20028;-86
2024/03/13 01:01:23;;;;;;;0.20;0.20;;;;;;;10.19;70.77;100702.38;4901221;29;20043;-86
2024/03/13 01:03:49;;;;;;;0.20;0.20;;;;;;;10.29;70.17;100726.09;4901219;29;20027;-85
2024/03/13 01:06:18;;;;;;;0.20;0.20;;;;;;;10.19;69.40;100720.47;4917105;29;20035;-86
2024/03/13 01:08:47;;;;;;;0.20;0.20;;;;;;;10.10;69.86;100722.66;4917322;29;20031;-86
2024/03/13 01:11:12;;;;;;;0.20;0.20;;;;;;;10.11;69.56;100716.56;4917042;29;20035;-87
2024/03/13 01:13:38;;;;;;;0.20;0.20;;;;;;;10.08;69.17;100720.13;4916005;29;20151;-85
2024/03/13 01:16:07;;;;;;;0.20;0.20;;;;;;;10.04;69.60;100703.94;4932584;29;20406;-86
2024/03/13 01:18:34;;;;;;;0.20;0.20;;;;;;;10.03;68.68;100717.78;4932521;29;20061;-86
2024/03/13 01:21:00;;;;;;;0.20;0.20;;;;;;;9.96;69.15;100713.78;4901150;29;20023;-86
2024/03/13 01:23:25;;;;;;;0.20;0.20;;;;;;;9.94;68.96;100718.19;4932508;29;20508;-86
2024/03/13 01:25:54;;;;;;;0.20;0.20;;;;;;;9.96;69.54;100706.03;4916494;29;20486;-85
2024/03/13 01:28:21;;;;;;;0.20;0.20;;;;;;;9.95;69.21;100719.03;4931931;29;20510;-85
2024/03/13 01:30:46;;;;;;;0.20;0.20;;;;;;;9.87;69.06;100718.50;4932337;29;20027;-85
2024/03/13 01:33:12;;;;;;;0.20;0.20;;;;;;;9.83;69.37;100711.78;4916341;29;20038;-87
2024/03/13 01:35:38;;;;;;;0.20;0.20;;;;;;;9.93;69.37;100721.69;4932284;29;20042;-86
2024/03/13 01:38:03;;;;;;;0.20;0.20;;;;;;;9.79;69.18;100713.69;4948095;29;20467;-86
2024/03/13 01:54:52;;;;;;;0.20;0.20;;;;;;;9.66;69.69;100712.56;4918638;29;20051;-85
2024/03/13 01:57:28;;;;;;;0.20;0.20;;;;;;;9.68;69.97;100718.47;4901631;29;20070;-86
2024/03/13 02:02:39;;;;;;;0.20;0.20;;;;;;;9.74;69.97;100725.97;4932089;29;20034;-85
2024/03/13 02:05:05;;;;;;;0.20;0.20;;;;;;;9.69;69.78;100722.75;4900568;29;20122;-85
2024/03/13 02:07:30;;;;;;;0.20;0.20;;;;;;;9.63;69.44;100712.66;4916368;29;20167;-86
2024/03/13 02:09:56;;;;;;;0.20;0.20;;;;;;;9.72;70.24;100731.19;4932069;29;20452;-86
2024/03/13 02:12:22;;;;;;;0.20;0.20;;;;;;;9.49;69.20;100706.38;4931585;29;20074;-86
2024/03/13 02:14:47;;;;;;;0.20;0.20;;;;;;;9.62;69.39;100727.31;4931799;29;20063;-85
2024/03/13 02:17:13;;;;;;;0.20;0.20;;;;;;;9.69;70.18;100739.06;4933163;29;20027;-85
2024/03/13 02:19:39;;;;;;;0.20;0.20;;;;;;;9.74;69.74;100738.91;4931734;29;20486;-86
2024/03/13 02:22:05;;;;;;;0.20;0.20;;;;;;;9.82;69.34;100736.78;4916053;29;20027;-85
2024/03/13 02:24:33;;;;;;;0.20;0.20;;;;;;;9.72;69.64;100713.09;4916219;29;20039;-85
2024/03/13 02:26:58;;;;;;;0.20;0.20;;;;;;;9.75;69.52;100722.50;4919651;29;20512;-85
2024/03/13 02:29:24;;;;;;;0.20;0.20;;;;;;;9.76;69.26;100724.16;4935240;29;20391;-86
2024/03/13 02:31:49;;;;;;;0.20;0.20;;;;;;;9.77;69.40;100720.66;4919539;29;20086;-85
2024/03/13 02:34:16;;;;;;;0.20;0.20;;;;;;;9.78;69.39;100720.59;4919357;29;20079;-85
2024/03/13 02:36:42;;;;;;;0.20;0.20;;;;;;;9.73;69.36;100712.22;4919455;29;20068;-85
2024/03/13 02:39:08;;;;;;;0.20;0.20;;;;;;;9.71;69.96;100720.91;4903484;29;20030;-85
2024/03/13 02:41:34;;;;;;;0.20;0.20;;;;;;;9.58;69.90;100699.13;4903884;29;20039;-86
2024/03/13 02:44:00;;;;;;;0.20;0.20;;;;;;;9.64;70.27;100716.94;4934955;29;20032;-85
2024/03/13 02:46:25;;;;;;;0.20;0.20;;;;;;;9.68;70.75;100718.47;4919161;29;20524;-85
2024/03/13 02:48:51;;;;;;;0.20;0.20;;;;;;;9.63;70.36;100723.00;4919008;29;20111;-85
2024/03/13 02:51:17;;;;;;;0.20;0.20;;;;;;;9.58;71.09;100720.63;4919241;29;20623;-85
2024/03/13 02:53:43;;;;;;;0.20;0.20;;;;;;;9.64;71.31;100724.69;4934849;29;20035;-85
2024/03/13 02:56:08;;;;;;;0.20;0.20;;;;;;;9.68;70.78;100723.66;4903539;29;20631;-86
2024/03/13 02:58:35;;;;;;;0.20;0.20;;;;;;;9.52;71.09;100720.03;4919209;29;20573;-85
2024/03/13 03:01:01;;;;;;;0.20;0.20;;;;;;;9.48;71.20;100715.03;4918958;29;20032;-86
2024/03/13 03:03:30;;;;;;;0.20;0.20;;;;;;;9.46;71.29;100721.16;4935031;29;21123;-86
2024/03/13 03:06:02;;;;;;;0.20;0.20;;;;;;;9.39;71.83;100725.75;4919624;29;20023;-86
2024/03/13 03:08:28;;;;;;;0.20;0.20;;;;;;;9.34;72.20;100714.78;4934612;29;20538;-85
2024/03/13 03:10:54;;;;;;;0.20;0.20;;;;;;;9.36;71.86;100706.97;4934710;29;20032;-85
2024/03/13 03:13:19;;;;;;;0.20;0.20;;;;;;;9.36;71.86;100709.53;4934521;29;20524;-86
2024/03/13 03:15:48;;;;;;;0.20;0.20;;;;;;;9.35;72.96;100721.63;4918837;29;20481;-85
2024/03/13 03:18:13;;;;;;;0.20;0.20;;;;;;;9.47;72.23;100722.84;4934552;29;20028;-85
2024/03/13 03:20:42;;;;;;;0.20;0.20;;;;;;;9.40;72.28;100722.25;4934596;29;20134;-86
2024/03/13 03:23:08;;;;;;;0.20;0.20;;;;;;;9.27;72.38;100717.69;4934187;29;20063;-86
2024/03/13 03:25:34;;;;;;;0.20;0.20;;;;;;;9.33;72.76;100727.72;4902913;29;20040;-85
2024/03/13 03:27:59;;;;;;;0.20;0.20;;;;;;;9.25;72.51;100729.81;4918355;29;20027;-85
2024/03/13 03:30:30;;;;;;;0.20;0.20;;;;;;;9.32;73.01;100729.47;4918692;29;20078;-85
2024/03/13 03:32:56;;;;;;;0.20;0.20;;;;;;;9.17;72.47;100710.31;4919149;29;20099;-85
2024/03/13 03:35:23;;;;;;;0.20;0.20;;;;;;;9.22;72.29;100728.19;4918522;29;20066;-85
2024/03/13 03:37:48;;;;;;;0.20;0.20;;;;;;;9.17;72.63;100710.31;4918011;29;20038;-85
2024/03/13 03:40:16;;;;;;;0.20;0.20;;;;;;;9.26;72.65;100719.44;4918855;29;20402;-85
2024/03/13 03:42:41;;;;;;;0.20;0.20;;;;;;;9.18;72.43;100704.25;4934277;29;20031;-86
2024/03/13 03:45:08;;;;;;;0.20;0.20;;;;;;;9.34;73.19;100727.69;4918360;29;20038;-85
2024/03/13 03:47:34;;;;;;;0.20;0.20;;;;;;;9.27;72.77;100715.09;4934160;29;20035;-85
2024/03/13 03:50:00;;;;;;;0.20;0.20;;;;;;;9.36;72.63;100731.03;4917886;29;20063;-85
2024/03/13 03:52:25;;;;;;;0.20;0.20;;;;;;;9.35;72.89;100734.53;4933721;29;20032;-85
2024/03/13 03:54:51;;;;;;;0.20;0.20;;;;;;;9.25;73.23;100725.50;4933927;29;20034;-85
2024/03/13 03:57:16;;;;;;;0.20;0.20;;;;;;;9.19;73.59;100729.16;4918073;29;20039;-82
2024/03/13 03:59:42;;;;;;;0.20;0.20;;;;;;;9.22;73.10;100732.50;4934123;29;20383;-82
2024/03/13 04:02:07;;;;;;;0.20;0.20;;;;;;;9.16;73.30;100729.28;4917974;29;20486;-82
2024/03/13 04:04:33;;;;;;;0.20;0.20;;;;;;;9.03;73.45;100715.19;4917990;29;20043;-82
2024/03/13 04:06:58;;;;;;;0.20;0.20;;;;;;;9.04;73.43;100718.59;4917505;29;20032;-82
2024/03/13 04:09:24;;;;;;;0.20;0.20;;;;;;;9.17;73.62;100733.53;4933506;29;20042;-86
2024/03/13 04:11:52;;;;;;;0.20;0.20;;;;;;;9.07;73.20;100718.50;4914937;29;20032;-86
2024/03/13 04:14:18;;;;;;;0.20;0.20;;;;;;;9.08;72.96;100709.84;4916934;29;20047;-86
2024/03/13 04:16:44;;;;;;;0.20;0.20;;;;;;;9.12;72.86;100726.88;4932364;29;20027;-85
2024/03/13 04:19:13;;;;;;;0.20;0.20;;;;;;;9.11;72.56;100728.63;4916899;29;20035;-85
2024/03/13 04:21:38;;;;;;;0.20;0.20;;;;;;;9.05;72.86;100720.31;4933399;29;20034;-85
2024/03/13 04:24:07;;;;;;;0.20;0.20;;;;;;;8.95;72.91;100718.97;4932748;29;20027;-85
2024/03/13 04:26:37;;;;;;;0.20;0.20;;;;;;;8.86;72.90;100710.75;4932756;29;20032;-86
2024/03/13 04:29:04;;;;;;;0.30;0.30;;;;;;;8.86;73.04;100717.63;4933009;29;20110;-85
2024/03/13 04:31:30;;;;;;;0.20;0.20;;;;;;;8.80;73.33;100728.19;4949178;29;20051;-85
2024/03/13 04:33:55;;;;;;;0.20;0.20;;;;;;;8.78;73.43;100717.94;4932846;29;20042;-86
2024/03/13 04:36:21;;;;;;;0.20;0.20;;;;;;;8.59;73.91;100706.69;4932427;29;20083;-85
2024/03/13 04:38:51;;;;;;;0.20;0.20;;;;;;;8.59;74.22;100711.84;4916906;29;20070;-86
2024/03/13 04:41:19;;;;;;;0.20;0.20;;;;;;;8.45;74.37;100706.34;4933046;29;20067;-86
2024/03/13 04:43:48;;;;;;;0.20;0.20;;;;;;;8.45;75.15;100708.94;4901198;29;20031;-86
2024/03/13 04:46:16;;;;;;;0.20;0.20;;;;;;;8.34;75.67;100712.78;4933021;29;20042;-85
2024/03/13 04:48:45;;;;;;;0.20;0.20;;;;;;;8.35;75.62;100711.03;4915967;29;20051;-86
2024/03/13 04:51:14;;;;;;;0.20;0.20;;;;;;;8.39;75.63;100725.50;4932726;29;20059;-86
2024/03/13 04:53:39;;;;;;;0.20;0.20;;;;;;;8.39;75.32;100724.66;4932849;29;20050;-86
2024/03/13 04:56:05;;;;;;;0.20;0.20;;;;;;;8.49;75.10;100731.13;4948300;29;20028;-85
2024/03/13 04:58:31;;;;;;;0.20;0.20;;;;;;;8.42;74.95;100714.22;4916917;29;20490;-86
2024/03/13 05:00:57;;;;;;;0.20;0.20;;;;;;;8.56;74.81;100727.44;4932596;29;20118;-85
2024/03/13 05:03:22;;;;;;;0.20;0.20;;;;;;;8.63;74.92;100734.84;4933851;29;20032;-86
2024/03/13 05:05:48;;;;;;;0.20;0.20;;;;;;;8.56;75.09;100730.84;4948587;29;20027;-87
2024/03/13 05:08:15;;;;;;;0.20;0.20;;;;;;;8.60;74.99;100745.28;4914485;29;20162;-86
2024/03/13 05:10:41;;;;;;;0.20;0.20;;;;;;;8.50;75.01;100728.50;4932407;29;20054;-86
2024/03/13 05:13:06;;;;;;;0.20;0.20;;;;;;;8.65;74.56;100742.53;4916154;29;20040;-85
2024/03/13 05:15:32;;;;;;;0.20;0.20;;;;;;;8.64;74.56;100738.25;4932485;29;20040;-83
2024/03/13 05:17:57;;;;;;;0.20;0.20;;;;;;;8.46;74.84;100711.47;4948144;29;20040;-84
2024/03/13 05:20:24;;;;;;;0.20;0.20;;;;;;;8.62;75.95;100737.50;4927738;29;20092;-83
2024/03/13 05:22:51;;;;;;;0.20;0.20;;;;;;;8.62;75.08;100733.16;4923606;29;20071;-85
2024/03/13 05:25:22;;;;;;;0.20;0.20;;;;;;;8.75;75.00;100728.41;4929942;29;20185;-84
2024/03/13 05:27:50;;;;;;;0.20;0.20;;;;;;;8.88;74.98;100733.91;4930154;29;20040;-85
2024/03/13 05:30:16;;;;;;;0.20;0.20;;;;;;;9.05;74.63;100740.97;4932662;29;20032;-88
2024/03/13 05:32:42;;;;;;;0.20;0.20;;;;;;;9.15;74.19;100737.94;4931092;29;20114;-87
2024/03/13 05:35:08;;;;;;;0.20;0.20;;;;;;;9.24;73.02;100734.09;4929313;29;20070;-84
2024/03/13 05:37:34;;;;;;;0.20;0.20;;;;;;;9.23;73.09;100737.59;4915885;29;20036;-90
2024/03/13 05:40:03;;;;;;;0.20;0.20;;;;;;;9.26;72.70;100739.25;4931341;29;20490;-83
2024/03/13 05:42:29;;;;;;;0.20;0.20;;;;;;;9.22;73.12;100728.19;4931435;29;20489;-81
2024/03/13 05:44:54;;;;;;;0.20;0.20;;;;;;;9.22;73.64;100719.59;4932363;29;20035;-82
2024/03/13 05:47:20;;;;;;;0.20;0.20;;;;;;;9.36;73.13;100743.13;4931614;29;20039;-84
2024/03/13 05:49:45;;;;;;;0.20;0.20;;;;;;;9.33;73.13;100731.16;4931199;29;20048;-92
2024/03/13 05:52:11;;;;;;;0.20;0.20;;;;;;;9.34;73.04;100735.44;4948414;29;20085;-84
2024/03/13 05:54:37;;;;;;;0.30;0.30;;;;;;;9.39;72.64;100737.81;4950598;29;20113;-80
2024/03/13 05:57:02;;;;;;;0.20;0.20;;;;;;;9.41;73.28;100734.25;4957474;28;20075;-85
2024/03/13 05:59:29;;;;;;;0.20;0.20;;;;;;;9.37;73.23;100735.28;4929015;29;20024;-85
2024/03/13 06:01:55;;;;;;;0.20;0.20;;;;;;;9.40;73.40;100727.41;4933729;29;20055;-87
2024/03/13 06:04:21;;;;;;;0.20;0.20;;;;;;;9.39;72.96;100718.00;4949574;29;20059;-87
2024/03/13 06:06:50;;;;;;;0.20;0.20;;;;;;;9.59;72.92;100742.13;4944375;29;20027;-88
2024/03/13 06:09:16;;;;;;;0.20;0.20;;;;;;;9.63;73.31;100741.91;4930601;29;20039;-94
2024/03/13 06:11:41;;;;;;;0.20;0.20;;;;;;;9.56;73.09;100739.69;4938207;29;20597;-85
2024/03/13 06:14:07;;;;;;;0.20;0.20;;;;;;;9.72;72.95;100745.84;4927289;29;20122;-93
2024/03/13 06:16:33;;;;;;;0.20;0.20;;;;;;;9.62;73.21;100736.81;4916416;29;20027;-85
2024/03/13 06:18:58;;;;;;;0.20;0.20;;;;;;;9.72;72.46;100738.94;4933420;29;20032;-91
2024/03/13 06:21:24;;;;;;;0.20;0.20;;;;;;;9.84;73.04;100747.91;4927290;29;20036;-85
2024/03/13 06:23:52;;;;;;;0.20;0.20;;;;;;;9.82;72.28;100744.53;4903003;29;20530;-88
2024/03/13 06:26:18;;;;;;;0.20;0.20;;;;;;;9.90;72.24;100739.03;4917144;29;20042;-88
2024/03/13 06:31:28;;;;;;;0.20;0.20;;;;;;;10.00;72.41;100737.72;4951617;29;20034;-84
2024/03/13 06:33:54;;;;;;;0.20;0.20;;;;;;;10.06;72.25;100751.22;4949701;28;20036;-89
2024/03/13 06:36:19;;;;;;;0.20;0.20;;;;;;;10.05;71.71;100741.81;4920010;29;20036;-90
2024/03/13 06:38:46;;;;;;;0.20;0.20;;;;;;;10.16;71.40;100758.56;4927057;29;20039;-93
2024/03/13 06:41:12;;;;;;;0.30;0.30;;;;;;;10.24;71.92;100756.50;4948159;28;20020;-88
2024/03/13 06:43:38;;;;;;;0.20;0.20;;;;;;;10.26;70.37;100754.69;4952697;29;20038;-83
2024/03/13 06:46:05;;;;;;;0.20;0.20;;;;;;;10.32;69.85;100742.34;4933188;29;20111;-85
2024/03/13 06:48:31;;;;;;;0.20;0.20;;;;;;;10.49;69.22;100751.88;4941228;29;20103;-89
2024/03/13 06:50:56;;;;;;;0.20;0.20;;;;;;;10.65;69.96;100767.53;4947465;28;20564;-91
2024/03/13 06:53:22;;;;;;;0.20;0.20;;;;;;;10.78;68.41;100770.38;4937348;29;20429;-86
2024/03/13 06:55:47;;;;;;;0.20;0.20;;;;;;;10.85;69.25;100753.66;4930516;29;20437;-93
2024/03/13 06:58:13;;;;;;;0.20;0.20;;;;;;;10.98;68.53;100762.50;4922093;29;20046;-93
2024/03/13 07:00:40;;;;;;;0.20;0.20;;;;;;;11.11;67.49;100754.97;4913236;29;20032;-92
2024/03/13 07:03:07;;;;;;;0.20;0.20;;;;;;;11.06;67.41;100756.94;4918102;29;20027;-91
2024/03/13 07:05:32;;;;;;;0.20;0.20;;;;;;;11.14;67.57;100760.84;4924679;29;20031;-92
2024/03/13 07:07:58;;;;;;;0.20;0.20;;;;;;;11.14;66.51;100758.25;4954505;29;20035;-88
2024/03/13 07:10:23;;;;;;;0.20;0.20;;;;;;;11.29;66.01;100759.22;4954226;28;20049;-89
2024/03/13 07:12:49;;;;;;;0.20;0.20;;;;;;;11.42;64.47;100764.66;4955167;28;20031;-89
2024/03/13 07:15:15;;;;;;;0.20;0.20;;;;;;;11.54;65.41;100763.19;4948262;29;20040;-84
2024/03/13 07:17:42;;;;;;;0.20;0.20;;;;;;;11.68;64.67;100764.16;4931249;29;20430;-86
2024/03/13 07:20:11;;;;;;;0.20;0.20;;;;;;;11.72;63.85;100768.28;4914837;29;20071;-83
2024/03/13 07:22:40;;;;;;;0.20;0.20;;;;;;;11.74;64.40;100770.78;4932176;29;20032;-84
2024/03/13 07:25:09;;;;;;;0.20;0.20;;;;;;;11.88;63.66;100772.69;4945142;29;20083;-83
2024/03/13 07:27:35;;;;;;;0.20;0.20;;;;;;;12.04;64.16;100779.59;4918003;29;20387;-84
2024/03/13 07:30:01;;;;;;;0.20;0.20;;;;;;;12.06;63.95;100782.94;4933311;29;20023;-88
2024/03/13 07:32:26;;;;;;;0.20;0.20;;;;;;;12.07;62.12;100782.03;4933291;29;20083;-92
2024/03/13 07:34:52;;;;;;;0.20;0.20;;;;;;;12.15;62.79;100776.44;4953631;28;20073;-88
2024/03/13 07:37:17;;;;;;;0.20;0.20;;;;;;;12.23;62.24;100787.25;4953259;29;20066;-87
2024/03/13 07:39:44;;;;;;;0.20;0.20;;;;;;;12.23;61.60;100791.59;4968730;28;20035;-83
2024/03/13 07:42:10;;;;;;;0.20;0.20;;;;;;;12.20;62.00;100784.00;4953987;28;20107;-91
2024/03/13 07:44:35;;;;;;;0.20;0.20;;;;;;;12.12;61.89;100771.44;4940397;29;20123;-90
2024/03/13 07:47:01;;;;;;;0.20;0.20;;;;;;;12.12;62.54;100773.19;4941967;29;20098;-81
2024/03/13 07:49:28;;;;;;;0.20;0.20;;;;;;;12.13;61.72;100756.69;4935078;29;20529;-89
2024/03/13 07:51:58;;;;;;;0.20;0.20;;;;;;;12.30;61.98;100778.22;4933088;29;20028;-81
2024/03/13 07:54:23;;;;;;;0.20;0.20;;;;;;;12.02;62.37;100765.88;4932929;29;20454;-81
2024/03/13 07:56:52;;;;;;;0.20;0.20;;;;;;;12.16;61.85;100770.34;4924657;29;20035;-84
2024/03/13 07:59:17;;;;;;;0.20;0.20;;;;;;;12.42;62.27;100783.69;4930189;29;20028;-93
2024/03/13 08:01:45;;;;;;;0.20;0.20;;;;;;;12.61;61.02;100779.16;4932669;29;20031;-86
2024/03/13 08:04:11;;;;;;;0.20;0.20;;;;;;;12.59;60.42;100776.66;4929447;29;20074;-83
2024/03/13 08:06:38;;;;;;;0.20;0.20;;;;;;;12.58;60.60;100779.31;4945236;29;20062;-89
2024/03/13 08:09:04;;;;;;;0.20;0.20;;;;;;;12.69;60.51;100771.78;4943301;29;20410;-84
2024/03/13 08:11:31;;;;;;;0.20;0.20;;;;;;;12.66;59.98;100777.13;4929379;29;20035;-92
2024/03/13 08:14:01;;;;;;;0.20;0.20;;;;;;;12.84;60.31;100786.50;4933570;29;20498;-86
2024/03/13 08:16:27;;;;;;;0.20;0.20;;;;;;;12.75;60.07;100781.81;4932970;29;20290;-86
2024/03/13 08:18:53;;;;;;;0.20;0.20;;;;;;;12.64;60.15;100777.22;4917448;29;20508;-93
2024/03/13 08:21:18;;;;;;;0.20;0.20;;;;;;;12.72;60.37;100776.81;4933317;29;20118;-85
2024/03/13 08:23:47;;;;;;;0.20;0.20;;;;;;;12.95;59.54;100769.47;4932846;29;20070;-83
2024/03/13 08:26:13;;;;;;;0.20;0.20;;;;;;;13.11;59.97;100778.09;4932617;29;20023;-82
2024/03/13 08:28:40;;;;;;;0.20;0.20;;;;;;;13.21;57.97;100766.28;4932383;29;20414;-84
2024/03/13 08:31:06;;;;;;;0.20;0.20;;;;;;;13.15;56.46;100769.19;4914917;29;20115;-87
2024/03/13 08:33:32;;;;;;;0.20;0.20;;;;;;;13.23;59.08;100777.41;4943894;29;20154;-86
2024/03/13 08:36:01;;;;;;;0.20;0.20;;;;;;;13.30;55.59;100768.34;4930443;29;20049;-93
2024/03/13 08:38:27;;;;;;;0.20;0.20;;;;;;;13.40;55.51;100761.69;4931319;29;20513;-88
2024/03/13 08:40:54;;;;;;;0.20;0.20;;;;;;;13.17;57.42;100754.34;4929616;29;20032;-85
2024/03/13 08:43:20;;;;;;;0.20;0.20;;;;;;;13.33;56.43;100764.72;4899149;29;20419;-85
2024/03/13 08:45:46;;;;;;;0.20;0.20;;;;;;;13.43;54.89;100765.88;4932770;29;20032;-88
2024/03/13 08:48:11;;;;;;;0.20;0.20;;;;;;;13.66;54.51;100754.09;4934022;29;20031;-90
2024/03/13 08:50:37;;;;;;;0.20;0.20;;;;;;;13.69;54.90;100769.53;4931911;29;20056;-86
2024/03/13 08:53:03;;;;;;;0.20;0.20;;;;;;;13.59;54.32;100752.81;4956435;28;20426;-90
2024/03/13 08:55:34;;;;;;;0.20;0.20;;;;;;;13.65;54.58;100765.44;4924083;29;20032;-90
2024/03/13 08:57:59;;;;;;;0.20;0.20;;;;;;;13.59;53.21;100763.22;4948793;29;20059;-86
2024/03/13 09:00:25;;;;;;;0.20;0.20;;;;;;;13.51;53.58;100786.22;4933313;29;20118;-84
2024/03/13 09:02:55;;;;;;;0.20;0.20;;;;;;;13.45;53.35;100774.41;4933034;29;20111;-91
2024/03/13 09:05:21;;;;;;;0.20;0.20;;;;;;;13.55;52.60;100772.94;4916952;29;20508;-88
2024/03/13 09:07:47;;;;;;;0.20;0.20;;;;;;;13.65;53.67;100774.06;4928737;29;20036;-86
2024/03/13 09:10:12;;;;;;;0.20;0.20;;;;;;;13.45;54.65;100745.81;4946283;28;20040;-87
2024/03/13 09:12:39;;;;;;;0.20;0.20;;;;;;;13.70;54.26;100773.81;4938294;29;20030;-90
2024/03/13 09:15:05;;;;;;;0.20;0.20;;;;;;;13.73;53.37;100779.66;4898691;29;20395;-88
2024/03/13 09:17:31;;;;;;;0.20;0.20;;;;;;;13.95;53.21;100794.78;4925745;29;20050;-95
2024/03/13 09:19:56;;;;;;;0.20;0.20;;;;;;;13.87;52.88;100794.44;4928565;29;20038;-87
2024/03/13 09:22:22;;;;;;;0.20;0.20;;;;;;;13.90;52.78;100796.03;4926782;29;20062;-87
2024/03/13 09:24:48;;;;;;;0.20;0.20;;;;;;;13.83;53.47;100794.72;4943901;29;20454;-85
2024/03/13 09:27:13;;;;;;;0.20;0.20;;;;;;;13.74;54.98;100778.72;4930137;29;20031;-88
2024/03/13 09:29:39;;;;;;;0.20;0.20;;;;;;;13.97;53.52;100785.16;4931676;29;20066;-86
2024/03/13 09:32:05;;;;;;;0.30;0.30;;;;;;;14.28;53.63;100789.31;4931624;29;20501;-84
2024/03/13 09:34:31;;;;;;;0.20;0.20;;;;;;;14.37;51.87;100787.94;4933948;29;20043;-88
2024/03/13 09:36:59;;;;;;;0.20;0.20;;;;;;;14.38;51.44;100784.38;4930688;29;20070;-83
2024/03/13 09:39:25;;;;;;;0.20;0.20;;;;;;;14.31;51.56;100799.53;4925644;29;20035;-94
2024/03/13 09:41:53;;;;;;;0.20;0.20;;;;;;;14.08;52.94;100797.53;4915971;29;20415;-90
2024/03/13 09:44:19;;;;;;;0.20;0.20;;;;;;;14.07;52.76;100777.63;4928077;29;20035;-88
2024/03/13 09:46:44;;;;;;;0.20;0.20;;;;;;;14.04;53.02;100794.25;4928161;29;20115;-90
2024/03/13 09:49:10;;;;;;;0.20;0.20;;;;;;;14.04;53.38;100791.66;4926555;29;20170;-86
2024/03/13 09:51:36;;;;;;;0.20;0.20;;;;;;;14.01;52.87;100804.00;4931553;29;20119;-87
2024/03/13 09:54:02;;;;;;;0.20;0.20;;;;;;;14.03;54.33;100810.78;4930122;29;20043;-83
2024/03/13 09:56:27;;;;;;;0.20;0.20;;;;;;;14.10;52.26;100802.63;4932564;29;20075;-87
2024/03/13 09:58:54;;;;;;;0.20;0.20;;;;;;;14.13;54.08;100810.22;4921862;29;20537;-87
2024/03/13 10:01:25;;;;;;;0.20;0.20;;;;;;;14.10;53.27;100806.06;4930568;29;20067;-91
2024/03/13 10:03:53;;;;;;;0.20;0.20;;;;;;;14.10;54.14;100800.03;4933283;29;20023;-93
2024/03/13 10:06:20;;;;;;;0.20;0.20;;;;;;;14.09;53.15;100809.59;4931184;29;20478;-88
2024/03/13 10:08:45;;;;;;;0.20;0.20;;;;;;;13.76;52.37;100804.63;4899328;29;20178;-86
2024/03/13 10:11:14;;;;;;;0.20;0.20;;;;;;;13.94;52.31;100803.53;4949937;29;20117;-92
2024/03/13 10:13:40;;;;;;;0.20;0.20;;;;;;;13.70;53.68;100805.84;4951367;29;20086;-94
2024/03/13 10:16:06;;;;;;;0.20;0.20;;;;;;;13.66;53.12;100800.91;4956481;28;20070;-89
2024/03/13 10:18:31;;;;;;;0.20;0.20;;;;;;;13.64;53.97;100805.34;4951967;29;20063;-91
2024/03/13 10:21:09;;;;;;;0.20;0.20;;;;;;;13.75;54.06;100795.16;4968114;28;20031;-92
2024/03/13 10:23:35;;;;;;;0.20;0.20;;;;;;;13.73;54.09;100799.63;4944109;29;20035;-92
2024/03/13 10:26:01;;;;;;;0.20;0.20;;;;;;;13.70;54.73;100792.84;4921559;29;20032;-88
2024/03/13 10:28:26;;;;;;;0.20;0.20;;;;;;;13.82;54.37;100804.28;4929889;29;20031;-91
2024/03/13 10:30:57;;;;;;;0.20;0.20;;;;;;;13.81;53.41;100815.59;4928034;29;20168;-86
2024/03/13 10:33:22;;;;;;;0.20;0.20;;;;;;;13.84;53.40;100798.97;4911908;29;20074;-90
2024/03/13 10:35:48;;;;;;;0.20;0.20;;;;;;;13.96;53.25;100813.84;4912355;29;20064;-87
2024/03/13 10:38:14;;;;;;;0.20;0.20;;;;;;;13.78;53.56;100802.78;4936634;29;20031;-90
2024/03/13 10:40:41;;;;;;;0.20;0.20;;;;;;;13.82;52.35;100801.69;4930134;29;20043;-90
2024/03/13 10:43:10;;;;;;;0.20;0.20;;;;;;;13.51;52.44;100804.41;4937298;29;20130;-88
2024/03/13 10:45:38;;;;;;;0.20;0.20;;;;;;;13.61;51.80;100813.34;4946398;28;20055;-87
2024/03/13 10:48:12;;;;;;;0.20;0.20;;;;;;;13.68;51.80;100797.31;4957220;28;20039;-88
2024/03/13 10:50:41;;;;;;;0.30;0.30;;;;;;;13.73;51.91;100792.66;4969941;28;20051;-88
2024/03/13 10:53:07;;;;;;;0.30;0.30;;;;;;;13.55;52.98;100775.53;4939464;29;20035;-89
2024/03/13 10:55:32;;;;;;;0.20;0.20;;;;;;;13.74;53.46;100803.88;4954114;29;20074;-90
2024/03/13 10:57:58;;;;;;;0.20;0.20;;;;;;;13.65;53.58;100789.66;4953453;29;20062;-87
2024/03/13 11:00:28;;;;;;;0.20;0.20;;;;;;;13.73;51.95;100803.06;4954338;28;20027;-91
2024/03/13 11:02:54;;;;;;;0.20;0.20;;;;;;;13.73;52.35;100782.25;4953851;29;20042;-87
2024/03/13 11:05:19;;;;;;;0.20;0.20;;;;;;;13.85;52.44;100785.88;4945207;29;20035;-87
2024/03/13 11:07:45;;;;;;;0.20;0.20;;;;;;;14.17;52.41;100793.53;4954882;29;20524;-88
2024/03/13 11:10:24;;;;;;;0.20;0.20;;;;;;;14.23;51.80;100791.38;4968821;28;20086;-93
2024/03/13 11:12:50;;;;;;;0.20;0.20;;;;;;;14.17;51.57;100785.72;4951668;29;20030;-87
2024/03/13 11:15:27;;;;;;;0.30;0.30;;;;;;;14.23;52.06;100780.13;4944178;29;20035;-88
2024/03/13 11:17:56;;;;;;;0.20;0.20;;;;;;;14.34;51.20;100769.88;4933326;29;20032;-85
2024/03/13 11:20:23;;;;;;;0.20;0.20;;;;;;;14.53;51.20;100765.22;4948738;29;20067;-85
2024/03/13 11:23:05;;;;;;;0.20;0.20;;;;;;;14.37;49.91;100764.50;4933325;29;20042;-88
2024/03/13 11:25:31;;;;;;;0.20;0.20;;;;;;;14.45;50.15;100764.88;4934722;29;20105;-90
2024/03/13 11:27:57;;;;;;;0.20;0.20;;;;;;;14.57;49.53;100764.13;4933599;29;20040;-89
2024/03/13 11:30:23;;;;;;;0.20;0.20;;;;;;;14.61;48.70;100781.19;4932941;29;20422;-88
2024/03/13 11:32:48;;;;;;;0.20;0.20;;;;;;;14.32;49.69;100763.94;4929282;29;20036;-84
2024/03/13 11:35:18;;;;;;;0.20;0.20;;;;;;;14.33;50.98;100760.41;4915187;29;20039;-85
2024/03/13 11:37:44;;;;;;;0.20;0.20;;;;;;;14.20;50.56;100760.34;4913589;29;20032;-80
2024/03/13 11:40:10;;;;;;;0.20;0.20;;;;;;;14.30;51.66;100771.00;4914363;29;20167;-87
2024/03/13 11:42:36;;;;;;;0.20;0.20;;;;;;;14.02;51.15;100777.91;4920441;29;20127;-91
2024/03/13 11:45:15;;;;;;;0.20;0.20;;;;;;;13.93;51.95;100781.06;4918426;29;20040;-85